• Join FlightAware (Why Join?)
  • Login
  • US Flag 
07:14AM EST


 

Airport Tracker/Info


-or-


 

Live Flight TrackerFlight Track Log ✈ ASH3770 ✈ 12-May-2013 ✈ KORD - KBDL

Flight Track Log - Related Links

Times and Time Zones

All times are in EDT time to prevent confusion due to time zone crossing. See the ASH3770 flight status page for this flight to view local times or setup timezone preferences in your user account.

Time Position Orientation Groundspeed Altitude Reporting Facility
EDT Latitude Longitude Course Direction KTS MPH feet Rate Location/Type
10:39PM 41.9833 -87.8500 62° Northeast 163 188 2,300  Level Chicago TRACON
10:40PM 42.0167 -87.7667 62° Northeast 224 258 5,000 2,220 Climbing Chicago TRACON
10:42PM 42.0531 -87.5958 74° East 269 310 9,300 2,100 Climbing Chicago Center
10:43PM 42.0653 -87.4833 82° East 292 336 11,200 2,040 Climbing Chicago Center
10:44PM 42.0786 -87.3575 82° East 328 377 13,500 1,860 Climbing Chicago Center
10:45PM 42.0950 -87.2225 81° East 355 409 15,000 720 Climbing Chicago Center
10:46PM 42.1100 -87.0747 82° East 388 447 15,000 1,320 Level Chicago Center
10:47PM 42.1172 -86.9267 86° East 397 457 17,800 2,640 Climbing Chicago Center
10:48PM 42.1222 -86.7528 88° East 391 450 20,500 1,980 Climbing Chicago Center
10:49PM 42.1278 -86.6283 87° East 401 461 21,900 1,440 Climbing Chicago Center
10:50PM 42.1322 -86.4733 88° East 412 474 23,500 1,620 Climbing Chicago Center
10:51PM 42.1389 -86.2803 87° East 428 493 25,200 1,500 Climbing Chicago Center
10:52PM 42.1442 -86.1128 88° East 444 511 26,600 1,260 Climbing Chicago Center
10:53PM 42.1428 -85.9553 91° East 454 522 27,800 1,080 Climbing Chicago Center
10:54PM 42.1411 -85.7828 91° East 463 533 28,900 1,080 Climbing Chicago Center
10:55PM 42.1400 -85.6097 90° East 466 536 30,000 900 Climbing Chicago Center
10:56PM 42.1381 -85.4311 91° East 477 549 30,800 780 Climbing Chicago Center
10:57PM 42.1400 -85.3050 89° East 467 537 31,300 780 Climbing Cleveland Center
10:58PM 42.1372 -85.1172 91° East 473 544 32,100 1,020 Climbing Cleveland Center
10:59PM 42.1325 -84.9153 92° East 480 552 33,400 1,020 Climbing Cleveland Center
11:00PM 42.1308 -84.7358 91° East 480 552 34,200 780 Climbing Cleveland Center
11:01PM 42.1269 -84.5508 92° East 485 558 35,000 360 Climbing Cleveland Center
11:02PM 42.1311 -84.3633 88° East 490 564 35,000 360 Level Cleveland Center
11:03PM 42.1325 -84.1953 89° East 490 564 35,800 480 Climbing Cleveland Center
11:04PM 42.1381 -84.0108 88° East 495 570 36,000 60 Climbing Cleveland Center
11:05PM 42.1436 -83.8233 88° East 495 570 36,000  Level Cleveland Center
11:06PM 42.1486 -83.6361 88° East 495 570 36,000  Level Cleveland Center
11:07PM 42.1561 -83.4261 87° East 495 570 36,000 180 Level Cleveland Center
11:08PM 42.1606 -83.2444 88° East 495 570 36,400 480 Climbing Cleveland Center
11:09PM 42.1647 -83.0567 88° East 495 570 37,000 300 Climbing Cleveland Center
11:10PM 42.1622 -82.8717 91° East 495 570 37,000  Level Cleveland Center
11:11PM 42.1722 -82.6817 86° East 495 570 37,000  Level Cleveland Center
11:12PM 42.1753 -82.4939 89° East 495 570 37,000  Level Cleveland Center
11:13PM 42.1806 -82.3064 88° East 495 570 37,000  Level Cleveland Center
11:14PM 42.1806 -82.1550 90° East 495 570 37,000  Level Cleveland Center
11:15PM 42.1853 -81.9422 88° East 495 570 37,000  Level Cleveland Center
11:16PM 42.1875 -81.7572 89° East 495 570 37,000  Level Cleveland Center
11:17PM 42.1914 -81.5697 88° East 495 570 37,000  Level Cleveland Center
11:18PM 42.1908 -81.3594 90° East 495 570 37,000  Level Cleveland Center
11:19PM 42.1919 -81.1689 89° East 495 570 37,000  Level Cleveland Center
11:20PM 42.1947 -80.9811 89° East 501 577 37,000 240 Level Cleveland Center
11:21PM 42.1953 -80.7878 90° East 511 588 37,500 600 Climbing Cleveland Center
11:22PM 42.1956 -80.5886 90° East 516 594 38,200 660 Climbing Cleveland Center
11:23PM 42.1953 -80.4094 90° East 500 575 38,900 360 Climbing Cleveland Center
11:24PM 42.1950 -80.2217 90° East 495 570 39,000  Climbing Cleveland Center
11:25PM 42.2006 -80.0506 87° East 495 570 39,000  Level Cleveland Center
11:26PM 42.2244 -79.8597 80° East 504 580 39,000  Level Cleveland Center
11:27PM 42.2419 -79.6717 83° East 510 587 39,000  Level Cleveland Center
11:28PM 42.2611 -79.4833 82° East 510 587 39,000  Level Cleveland Center
11:29PM 42.2800 -79.2894 82° East 510 587 39,000  Level Cleveland Center
11:30PM 42.2986 -79.0981 82° East 510 587 39,000  Level Cleveland Center
11:31PM 42.3186 -78.8900 83° East 510 587 39,000  Level Cleveland Center
11:32PM 42.3347 -78.7153 83° East 510 587 39,000  Level Cleveland Center
11:33PM 42.3522 -78.5264 83° East 510 587 39,000  Level Cleveland Center
11:34PM 42.3694 -78.3347 83° East 510 587 39,000  Level Cleveland Center
11:35PM 42.3864 -78.1403 83° East 515 593 39,000  Level Cleveland Center
11:36PM 42.4031 -77.9483 83° East 515 593 39,000  Level Cleveland Center
11:37PM 42.4208 -77.7367 83° East 515 593 39,000  Level Cleveland Center
11:38PM 42.4369 -77.5475 83° East 520 598 39,000  Level Cleveland Center
11:40PM 42.4650 -77.2031 84° East 514 592 39,000  Level Boston Center
11:41PM 42.4794 -77.0069 84° East 514 592 39,000  Level Boston Center
11:42PM 42.4933 -76.8136 84° East 514 592 39,000 -780 Level Boston Center
11:43PM 42.5006 -76.6197 87° East 514 592 37,500 -1,980 Descending Boston Center
11:44PM 42.4950 -76.4250 92° East 514 592 35,100 -2,400 Descending Boston Center
11:45PM 42.4914 -76.2275 91° East 519 597 32,700 -2,100 Descending Boston Center
11:46PM 42.4881 -76.0725 92° East 519 597 30,900 -2,100 Descending Boston Center
11:47PM 42.4828 -75.8442 92° East 513 590 28,600 -1,800 Descending Boston Center
11:48PM 42.4797 -75.6636 91° East 500 575 27,400 -1,200 Descending Boston Center
11:49PM 42.4725 -75.4747 93° East 495 570 26,200 -1,320 Descending Boston Center
11:50PM 42.4669 -75.2858 92° East 501 577 24,800 -1,440 Descending Boston Center
11:51PM 42.4692 -75.1000 89° East 496 571 23,400 -1,380 Descending Boston Center
11:52PM 42.4733 -74.9258 88° East 483 556 22,100 -1,140 Descending Boston Center
11:53PM 42.4769 -74.7514 88° East 465 535 21,200 -720 Descending Boston Center
11:54PM 42.4783 -74.5767 89° East 459 528 20,700 -480 Descending Boston Center
11:55PM 42.4817 -74.3939 89° East 453 521 20,300 -900 Descending Boston Center
11:57PM 42.3906 -74.0817 111° Southeast 445 512 18,000 -1,200 Descending Boston Center
11:58PM 42.3486 -73.9458 113° Southeast 440 506 16,700 -1,440 Descending Boston Center
11:59PM 42.2986 -73.7875 113° Southeast 426 490 15,200 -1,560 Descending Boston Center
12:00AM 42.2603 -73.6717 114° Southeast 422 486 13,900 -1,440 Descending Boston Center
12:01AM 42.2058 -73.5081 114° Southeast 410 472 12,400 -1,320 Descending Boston Center
12:02AM 42.1611 -73.3700 114° Southeast 405 466 11,100 -780 Descending Boston Center
12:03AM 42.1225 -73.2519 114° Southeast 351 404 10,900 -840 Descending Boston Center
12:04AM 42.0878 -73.1450 114° Southeast 311 358 9,500 -1,560 Descending Boston Center
12:05AM 42.0550 -73.0356 112° Southeast 307 353 7,800 -1,620 Descending Boston Center
12:06AM 42.0325 -72.9319 106° East 297 342 6,300 -1,680 Descending Boston Center
12:07AM 42.0558 -72.8203 74° East 289 333 4,500 -1,200 Descending Boston Center
12:08AM 42.0686 -72.7394 78° East 275 316 3,900 -900 Descending Boston Center
12:09AM 42.0647 -72.6497 93° East 256 295 2,800 -1,020 Descending Boston Center
12:10AM 42.0231 -72.5967 137° Southeast 169 194 1,900 -660 Descending Boston Center
12:11AM 41.9917 -72.6161 205° Southwest 136 157 1,500 -600 Descending Boston Center
12:12AM 41.9647 -72.6522 225° Southwest 128 147 800 -660 Descending Boston Center
12:13AM 41.9353 -72.6744 209° Southwest 114 131 200 4,380 Descending Boston Center
12:14AM 41.9042 -72.6967 208° Southwest 114 131 11,000 9,000 Climbing Boston Center